Time;durP1;ratioP1;P1;durP2;ratioP2;P2;SDS_P1;SDS_P2;PMS_P1;PMS_P2;Temp;Humidity;BMP_temperature;BMP_pressure;BME280_temperature;BME280_humidity;BME280_pressure;Samples;Min_cycle;Max_cycle;Signal;HPM_P1;HPM_P2
2023/02/03 00:00:45;;;;;;;2.67;2.00;;;5.30;99.90;;;;;;4973051;28;20810;-69
2023/02/03 00:03:11;;;;;;;2.90;1.50;;;5.30;99.90;;;;;;4970865;28;20443;-69
2023/02/03 00:05:36;;;;;;;2.80;1.60;;;5.30;99.90;;;;;;4972111;28;21594;-69
2023/02/03 00:08:04;;;;;;;1.90;1.40;;;5.30;99.90;;;;;;4970296;28;20270;-69
2023/02/03 00:10:29;;;;;;;1.30;1.30;;;5.30;99.90;;;;;;4971903;28;20196;-69
2023/02/03 00:12:56;;;;;;;1.60;1.50;;;5.30;99.90;;;;;;4972438;28;20458;-69
2023/02/03 00:15:22;;;;;;;2.87;1.37;;;5.30;99.90;;;;;;4972188;28;20188;-69
2023/02/03 00:17:48;;;;;;;1.57;1.47;;;5.30;99.90;;;;;;4979404;28;20514;-69
2023/02/03 00:20:13;;;;;;;1.20;1.10;;;5.30;99.90;;;;;;4970005;28;20216;-69
2023/02/03 00:22:39;;;;;;;1.80;1.50;;;5.30;99.90;;;;;;4971378;28;20461;-69
2023/02/03 00:25:05;;;;;;;1.20;1.10;;;5.40;99.90;;;;;;4971085;28;20192;-69
2023/02/03 00:27:31;;;;;;;1.47;1.30;;;5.40;99.90;;;;;;4968731;28;20187;-70
2023/02/03 00:29:57;;;;;;;1.70;1.20;;;5.40;99.90;;;;;;4968071;28;20184;-70
2023/02/03 00:32:22;;;;;;;1.43;1.30;;;5.40;99.90;;;;;;4970655;28;20900;-69
2023/02/03 00:34:48;;;;;;;1.07;0.93;;;5.40;99.90;;;;;;4972387;28;20180;-69
2023/02/03 00:37:13;;;;;;;1.23;1.10;;;5.40;99.90;;;;;;4971410;28;20180;-69
2023/02/03 00:39:39;;;;;;;0.90;0.90;;;5.40;99.90;;;;;;4974875;28;20204;-69
2023/02/03 00:42:05;;;;;;;1.30;1.20;;;5.40;99.90;;;;;;4973715;28;20188;-69
2023/02/03 00:44:31;;;;;;;0.90;0.80;;;5.40;99.90;;;;;;4971803;28;20255;-69
2023/02/03 00:46:57;;;;;;;1.97;1.40;;;5.40;99.90;;;;;;4974352;28;20542;-69
2023/02/03 00:49:22;;;;;;;2.83;1.10;;;5.40;99.90;;;;;;4974717;28;20208;-69
2023/02/03 00:51:48;;;;;;;2.43;1.10;;;5.40;99.90;;;;;;4981919;28;20222;-69
2023/02/03 00:54:13;;;;;;;1.10;0.90;;;5.50;99.90;;;;;;4974518;28;20283;-69
2023/02/03 00:56:39;;;;;;;1.20;1.10;;;5.50;99.90;;;;;;4975920;28;20248;-69
2023/02/03 00:59:05;;;;;;;3.50;1.13;;;5.50;99.90;;;;;;4974167;28;20696;-69
2023/02/03 01:01:32;;;;;;;0.80;0.80;;;5.50;99.90;;;;;;4975311;28;20207;-69
2023/02/03 01:03:58;;;;;;;1.43;0.97;;;5.50;99.90;;;;;;4971478;28;20577;-69
2023/02/03 01:06:24;;;;;;;2.40;1.50;;;5.50;99.90;;;;;;4974082;28;20435;-69
2023/02/03 01:08:50;;;;;;;0.97;0.90;;;5.50;99.90;;;;;;4975365;28;20537;-69
2023/02/03 01:11:18;;;;;;;2.07;0.90;;;5.50;99.90;;;;;;4972849;28;20538;-68
2023/02/03 01:13:44;;;;;;;1.17;1.13;;;5.50;99.90;;;;;;4974956;28;20439;-69
2023/02/03 01:16:12;;;;;;;1.63;1.00;;;5.50;99.90;;;;;;4978620;28;20471;-69
2023/02/03 01:18:39;;;;;;;1.30;1.20;;;5.50;99.90;;;;;;4977087;28;20464;-69
2023/02/03 01:21:11;;;;;;;1.70;1.40;;;5.50;99.90;;;;;;4973104;28;20459;-69
2023/02/03 01:23:37;;;;;;;1.13;1.03;;;5.50;99.90;;;;;;4974353;28;20809;-68
2023/02/03 01:26:08;;;;;;;1.20;1.00;;;5.50;99.90;;;;;;4975945;28;20444;-69
2023/02/03 01:28:34;;;;;;;2.23;2.03;;;5.50;99.90;;;;;;4971778;28;20514;-69
2023/02/03 01:31:08;;;;;;;1.20;1.10;;;5.50;99.90;;;;;;4971016;28;20443;-69
2023/02/03 01:33:34;;;;;;;1.13;1.03;;;5.50;99.90;;;;;;4972605;28;20179;-68
2023/02/03 01:36:00;;;;;;;3.10;1.63;;;5.50;99.90;;;;;;4972536;28;20455;-69
2023/02/03 01:38:26;;;;;;;2.27;1.47;;;5.50;99.90;;;;;;4972598;28;20235;-69
2023/02/03 01:40:51;;;;;;;1.83;1.30;;;5.50;99.90;;;;;;4971679;28;20505;-69
2023/02/03 01:43:31;;;;;;;1.60;1.50;;;5.50;99.90;;;;;;4972761;28;20192;-69
2023/02/03 01:45:58;;;;;;;2.20;1.23;;;5.50;99.90;;;;;;4969487;28;20184;-69
2023/02/03 01:48:24;;;;;;;1.93;1.77;;;5.50;99.90;;;;;;4965905;28;20463;-69
2023/02/03 01:50:50;;;;;;;1.90;1.80;;;5.50;99.90;;;;;;4971919;28;20439;-69
2023/02/03 01:53:15;;;;;;;3.47;1.57;;;5.50;99.90;;;;;;4973304;28;20189;-69
2023/02/03 01:55:45;;;;;;;2.30;1.70;;;5.50;99.90;;;;;;4972741;28;20208;-69
2023/02/03 01:58:16;;;;;;;1.90;1.40;;;5.50;99.90;;;;;;4972378;28;20208;-68
2023/02/03 02:00:42;;;;;;;2.20;2.00;;;5.50;99.90;;;;;;4974790;28;20549;-69
2023/02/03 02:03:08;;;;;;;1.53;1.40;;;5.50;99.90;;;;;;4972814;28;20447;-69
2023/02/03 02:05:42;;;;;;;1.70;1.60;;;5.50;99.90;;;;;;4973406;28;20494;-68
2023/02/03 02:08:09;;;;;;;1.57;1.40;;;5.50;99.90;;;;;;4974210;28;20455;-68
2023/02/03 02:10:34;;;;;;;2.50;1.80;;;5.50;99.90;;;;;;4972751;28;20447;-69
2023/02/03 02:13:02;;;;;;;1.97;1.80;;;5.50;99.90;;;;;;4973853;28;20971;-68
2023/02/03 02:15:49;;;;;;;4.53;1.93;;;5.50;99.90;;;;;;4974177;28;20655;-69
2023/02/03 02:18:25;;;;;;;2.43;1.70;;;5.50;99.90;;;;;;4972961;28;20471;-69
2023/02/03 02:21:17;;;;;;;2.07;1.83;;;5.50;99.90;;;;;;4972462;28;20466;-69
2023/02/03 02:24:10;;;;;;;1.87;1.77;;;5.50;99.90;;;;;;4964514;28;20955;-69
2023/02/03 02:27:08;;;;;;;5.83;1.63;;;5.50;99.90;;;;;;4971743;28;20451;-71
2023/02/03 02:29:52;;;;;;;4.93;2.20;;;5.50;99.90;;;;;;4971456;28;20969;-71
2023/02/03 02:32:57;;;;;;;3.93;2.13;;;5.50;99.90;;;;;;4970243;28;20446;-69
2023/02/03 02:35:26;;;;;;;2.00;1.70;;;5.50;99.90;;;;;;4970684;28;20457;-68
2023/02/03 02:38:22;;;;;;;3.27;2.57;;;5.50;99.90;;;;;;4973696;28;20463;-69
2023/02/03 02:41:02;;;;;;;3.53;2.20;;;5.50;99.90;;;;;;4966246;28;20794;-68
2023/02/03 02:43:41;;;;;;;2.03;1.77;;;5.50;99.90;;;;;;4973434;28;20442;-69
2023/02/03 02:46:32;;;;;;;2.10;1.90;;;5.50;99.90;;;;;;4968667;28;20439;-68
2023/02/03 02:49:36;;;;;;;1.80;1.60;;;5.50;99.90;;;;;;4965555;28;20550;-68
2023/02/03 02:52:04;;;;;;;2.03;1.47;;;5.50;99.90;;;;;;4957722;28;20468;-69
2023/02/03 02:54:32;;;;;;;3.43;2.40;;;5.50;99.90;;;;;;4958072;28;20479;-69
2023/02/03 02:57:02;;;;;;;4.30;2.20;;;5.40;99.90;;;;;;4965478;28;20602;-68
2023/02/03 02:59:27;;;;;;;1.97;1.87;;;5.50;99.90;;;;;;4972313;28;20463;-69
2023/02/03 03:01:53;;;;;;;1.40;1.30;;;5.50;99.90;;;;;;4972868;28;20482;-68
2023/02/03 03:04:24;;;;;;;1.50;1.40;;;5.50;99.90;;;;;;4971634;28;20192;-68
2023/02/03 03:07:03;;;;;;;3.30;1.80;;;5.50;99.90;;;;;;4971746;28;20188;-69
2023/02/03 03:09:35;;;;;;;2.67;1.67;;;5.60;99.90;;;;;;4970705;28;20546;-69
2023/02/03 03:12:13;;;;;;;2.30;1.33;;;5.70;99.90;;;;;;4972317;28;20553;-69
2023/02/03 03:14:44;;;;;;;1.77;1.67;;;5.70;99.90;;;;;;4972923;28;20449;-69
2023/02/03 03:17:13;;;;;;;2.63;1.10;;;5.60;99.90;;;;;;4973191;28;20470;-69
2023/02/03 03:19:45;;;;;;;3.33;1.50;;;5.60;99.90;;;;;;4971919;28;20813;-69
2023/02/03 03:22:13;;;;;;;2.70;1.50;;;5.60;99.90;;;;;;4970234;28;20449;-69
2023/02/03 03:24:45;;;;;;;3.33;1.40;;;5.60;99.90;;;;;;4977637;28;20436;-69
2023/02/03 03:27:23;;;;;;;1.80;0.93;;;5.60;99.90;;;;;;4972044;28;20467;-69
2023/02/03 03:29:54;;;;;;;1.17;0.90;;;5.60;99.90;;;;;;4963653;28;20463;-69
2023/02/03 03:32:21;;;;;;;1.97;1.00;;;5.70;99.90;;;;;;4971558;28;20439;-69
2023/02/03 03:34:46;;;;;;;1.63;1.20;;;5.70;99.90;;;;;;4972439;28;20450;-69
2023/02/03 03:37:27;;;;;;;1.13;0.80;;;5.70;99.90;;;;;;4972128;28;20443;-68
2023/02/03 03:39:55;;;;;;;1.37;1.07;;;5.70;99.90;;;;;;4964319;28;20200;-69
2023/02/03 03:42:50;;;;;;;0.77;0.77;;;5.70;99.90;;;;;;4972885;28;20448;-70
2023/02/03 03:45:25;;;;;;;1.37;0.77;;;5.70;99.90;;;;;;4971296;28;20501;-69
2023/02/03 03:48:12;;;;;;;1.00;0.70;;;5.70;99.90;;;;;;4969474;28;20820;-69
2023/02/03 03:50:43;;;;;;;2.83;1.03;;;5.70;99.90;;;;;;4969754;28;20817;-69
2023/02/03 03:53:11;;;;;;;2.10;0.60;;;5.70;99.90;;;;;;4972311;28;20498;-69
2023/02/03 03:55:39;;;;;;;1.03;0.80;;;5.80;99.90;;;;;;4972147;28;20479;-69
2023/02/03 03:58:11;;;;;;;1.47;0.77;;;5.70;99.90;;;;;;4977702;28;20477;-68
2023/02/03 04:00:39;;;;;;;2.67;0.73;;;5.80;99.90;;;;;;4971395;28;20594;-69
2023/02/03 04:03:21;;;;;;;0.80;0.70;;;5.80;99.90;;;;;;4970516;28;20463;-69
2023/02/03 04:05:47;;;;;;;0.70;0.70;;;5.80;99.90;;;;;;4964233;28;20437;-69
2023/02/03 04:08:13;;;;;;;0.70;0.70;;;5.80;99.90;;;;;;4968796;28;20973;-69
2023/02/03 04:10:40;;;;;;;1.73;1.00;;;5.80;99.90;;;;;;4969709;28;20196;-69
2023/02/03 04:13:07;;;;;;;1.20;0.90;;;5.70;99.90;;;;;;4969393;28;20188;-69
2023/02/03 04:15:33;;;;;;;1.00;0.90;;;5.70;99.90;;;;;;4977282;28;20443;-69
2023/02/03 04:18:00;;;;;;;1.23;0.83;;;5.60;99.90;;;;;;4974217;28;20506;-69
2023/02/03 04:20:27;;;;;;;1.53;0.70;;;5.60;99.90;;;;;;4974242;28;20463;-69
2023/02/03 04:22:53;;;;;;;1.73;0.70;;;5.50;99.90;;;;;;4975601;28;20534;-69
2023/02/03 04:25:19;;;;;;;0.80;0.80;;;5.50;99.90;;;;;;4974789;28;21021;-69
2023/02/03 04:27:44;;;;;;;0.87;0.73;;;5.50;99.90;;;;;;4973004;28;20651;-69
2023/02/03 04:30:11;;;;;;;0.60;0.60;;;5.50;99.90;;;;;;4972558;28;20550;-69
2023/02/03 04:32:36;;;;;;;0.77;0.70;;;5.40;99.90;;;;;;4977457;28;20188;-69
2023/02/03 04:35:04;;;;;;;1.43;1.00;;;5.40;99.90;;;;;;4975927;28;20446;-69
2023/02/03 04:37:30;;;;;;;0.87;0.80;;;5.30;99.90;;;;;;4972235;28;20195;-70
2023/02/03 04:39:55;;;;;;;1.23;0.67;;;5.30;99.90;;;;;;4972785;28;20819;-69
2023/02/03 04:42:21;;;;;;;0.67;0.67;;;5.20;99.90;;;;;;4974900;28;20267;-70
2023/02/03 04:44:47;;;;;;;1.27;0.83;;;5.20;99.90;;;;;;4975867;28;20180;-70
2023/02/03 04:47:13;;;;;;;0.90;0.90;;;5.20;99.90;;;;;;4973302;28;20182;-70
2023/02/03 04:49:38;;;;;;;1.40;1.03;;;5.20;99.90;;;;;;4981855;28;20745;-70
2023/02/03 04:52:04;;;;;;;2.00;1.10;;;5.20;99.90;;;;;;4973660;28;20435;-70
2023/02/03 04:54:30;;;;;;;1.20;1.00;;;5.20;99.90;;;;;;4972460;28;20554;-70
2023/02/03 04:56:55;;;;;;;3.03;1.27;;;5.20;99.90;;;;;;4975531;28;20542;-70
2023/02/03 04:59:21;;;;;;;1.33;1.07;;;5.20;99.90;;;;;;4974724;28;20216;-70
2023/02/03 05:01:46;;;;;;;1.43;1.13;;;5.20;99.90;;;;;;4975186;28;20288;-69
2023/02/03 05:04:12;;;;;;;7.17;3.20;;;5.10;99.90;;;;;;4973402;28;20646;-70
2023/02/03 05:06:38;;;;;;;2.00;1.50;;;5.20;99.90;;;;;;4974181;28;20610;-70
2023/02/03 05:09:03;;;;;;;1.77;1.20;;;5.10;99.90;;;;;;4973822;28;20270;-70
2023/02/03 05:11:29;;;;;;;2.53;1.07;;;5.20;99.90;;;;;;4973359;28;20184;-70
2023/02/03 05:13:55;;;;;;;1.70;1.43;;;5.10;99.90;;;;;;4974638;28;20188;-69
2023/02/03 05:16:20;;;;;;;1.47;1.37;;;5.10;99.90;;;;;;4975239;28;20188;-70
2023/02/03 05:18:46;;;;;;;1.50;1.30;;;5.10;99.90;;;;;;4974422;28;20200;-70
2023/02/03 05:21:11;;;;;;;1.40;1.30;;;5.10;99.90;;;;;;4974687;28;20282;-70
2023/02/03 05:23:37;;;;;;;1.40;1.30;;;5.20;99.90;;;;;;4981598;28;20188;-70
2023/02/03 05:26:03;;;;;;;1.43;1.33;;;5.20;99.90;;;;;;4974006;28;20254;-70
2023/02/03 05:28:29;;;;;;;2.67;1.50;;;5.20;99.90;;;;;;4972316;28;20291;-70
2023/02/03 05:30:57;;;;;;;1.57;1.43;;;5.20;99.90;;;;;;4972849;28;20539;-70
2023/02/03 05:33:23;;;;;;;1.87;1.60;;;5.20;99.90;;;;;;4974220;28;20238;-70
2023/02/03 05:35:48;;;;;;;1.60;1.50;;;5.20;99.90;;;;;;4975000;28;20435;-70
2023/02/03 05:38:14;;;;;;;2.20;1.83;;;5.20;99.90;;;;;;4972166;28;20216;-70
2023/02/03 05:43:23;;;;;;;2.13;1.40;;;5.20;99.90;;;;;;4973632;28;20195;-70
2023/02/03 05:45:49;;;;;;;1.53;1.43;;;5.20;99.90;;;;;;4972785;28;20788;-70
2023/02/03 05:48:14;;;;;;;1.70;1.60;;;5.20;99.90;;;;;;4973084;28;20709;-70
2023/02/03 05:50:40;;;;;;;2.07;1.80;;;5.20;99.90;;;;;;4974466;28;20264;-70
2023/02/03 05:53:06;;;;;;;1.90;1.67;;;5.20;99.90;;;;;;4972127;28;20557;-69
2023/02/03 05:55:32;;;;;;;9.27;2.17;;;5.20;99.90;;;;;;4973386;28;20227;-69
2023/02/03 05:58:01;;;;;;;2.07;1.47;;;5.20;99.90;;;;;;4980618;28;20552;-69
2023/02/03 06:00:27;;;;;;;3.63;1.57;;;5.20;99.90;;;;;;4970048;28;20211;-69
2023/02/03 06:02:55;;;;;;;2.87;2.20;;;5.20;99.90;;;;;;4967133;28;20440;-69
2023/02/03 06:05:21;;;;;;;2.03;1.60;;;5.20;99.90;;;;;;4969694;28;20451;-69
2023/02/03 06:07:47;;;;;;;1.57;1.30;;;5.10;99.90;;;;;;4969644;28;20439;-69
2023/02/03 06:10:13;;;;;;;1.57;1.47;;;5.10;99.90;;;;;;4972550;28;20457;-69
2023/02/03 06:12:39;;;;;;;1.70;1.60;;;5.20;99.90;;;;;;4972781;28;20271;-69
2023/02/03 06:15:05;;;;;;;1.70;1.40;;;5.20;99.90;;;;;;4972141;28;20537;-69
2023/02/03 06:17:31;;;;;;;1.70;1.53;;;5.20;99.90;;;;;;4973018;28;20184;-69
2023/02/03 06:19:57;;;;;;;4.40;1.83;;;5.20;99.90;;;;;;4975135;28;20452;-70
2023/02/03 06:22:22;;;;;;;2.20;1.20;;;5.20;99.90;;;;;;4975252;28;20447;-69
2023/02/03 06:24:48;;;;;;;2.00;1.90;;;5.20;99.90;;;;;;4973595;28;20180;-69
2023/02/03 06:27:14;;;;;;;6.50;3.87;;;5.20;99.90;;;;;;4971923;28;20226;-69
2023/02/03 06:29:41;;;;;;;3.30;2.10;;;5.20;99.90;;;;;;4973038;28;20290;-69
2023/02/03 06:32:06;;;;;;;2.90;1.50;;;5.20;99.90;;;;;;4971344;28;20447;-69
2023/02/03 06:34:32;;;;;;;1.50;1.40;;;5.20;99.90;;;;;;4969460;28;20447;-69
2023/02/03 06:36:58;;;;;;;2.10;1.67;;;5.20;99.90;;;;;;4972675;28;20271;-70
2023/02/03 06:39:23;;;;;;;2.23;1.40;;;5.20;99.90;;;;;;4972652;28;20220;-69
2023/02/03 06:41:50;;;;;;;2.47;1.33;;;5.20;99.90;;;;;;4973581;28;20206;-69
2023/02/03 06:44:16;;;;;;;3.40;1.63;;;5.20;99.90;;;;;;4973890;28;20180;-69
2023/02/03 06:46:42;;;;;;;3.83;1.80;;;5.20;99.90;;;;;;4972799;28;20455;-70
2023/02/03 06:49:07;;;;;;;1.70;1.50;;;5.20;99.90;;;;;;4971009;28;20517;-70
2023/02/03 06:51:33;;;;;;;5.30;3.80;;;5.10;99.90;;;;;;4971673;28;20250;-69
2023/02/03 06:53:58;;;;;;;2.17;1.97;;;5.10;99.90;;;;;;4974918;28;20273;-70
2023/02/03 06:56:24;;;;;;;3.00;1.93;;;5.10;99.90;;;;;;4973054;28;20208;-69
2023/02/03 06:58:50;;;;;;;1.93;1.73;;;5.10;99.90;;;;;;4971996;28;20226;-70
2023/02/03 07:01:15;;;;;;;2.20;1.70;;;5.10;99.90;;;;;;4971745;28;20682;-68
2023/02/03 07:03:41;;;;;;;2.70;2.00;;;5.00;99.90;;;;;;4972164;28;20192;-69
2023/02/03 07:06:06;;;;;;;2.33;2.13;;;5.00;99.90;;;;;;4970845;28;20188;-68
2023/02/03 07:08:32;;;;;;;3.13;1.80;;;5.00;99.90;;;;;;4971898;28;20197;-68
2023/02/03 07:10:57;;;;;;;2.10;1.90;;;5.00;99.90;;;;;;4971045;28;20195;-68
2023/02/03 07:13:23;;;;;;;4.93;1.90;;;5.00;99.90;;;;;;4972599;28;20267;-69
2023/02/03 07:15:48;;;;;;;2.60;2.40;;;5.00;99.90;;;;;;4971200;28;20280;-68
2023/02/03 07:18:15;;;;;;;2.80;2.00;;;5.00;99.90;;;;;;4972271;28;20207;-67
2023/02/03 07:20:40;;;;;;;2.90;2.27;;;5.00;99.90;;;;;;4972353;28;21098;-67
2023/02/03 07:23:06;;;;;;;2.10;1.90;;;5.00;99.90;;;;;;4972173;28;20444;-68
2023/02/03 07:25:31;;;;;;;2.53;2.37;;;5.00;99.90;;;;;;4973429;28;20176;-68
2023/02/03 07:27:57;;;;;;;2.83;2.40;;;5.00;99.90;;;;;;4973801;28;20231;-68
2023/02/03 07:30:22;;;;;;;3.37;2.07;;;5.00;99.90;;;;;;4972751;28;20184;-68
2023/02/03 07:32:49;;;;;;;3.10;2.43;;;5.00;99.90;;;;;;4973602;28;20180;-68
2023/02/03 07:35:15;;;;;;;2.90;2.47;;;5.00;99.90;;;;;;4973384;28;20256;-69
2023/02/03 07:37:41;;;;;;;4.53;2.40;;;5.00;99.90;;;;;;4973232;28;20428;-68
2023/02/03 07:40:08;;;;;;;2.67;2.47;;;5.00;99.90;;;;;;4972431;28;20180;-68
2023/02/03 07:42:33;;;;;;;2.57;2.37;;;5.00;99.90;;;;;;4973623;28;20423;-68
2023/02/03 07:44:59;;;;;;;4.47;3.00;;;5.00;99.90;;;;;;4973323;28;20804;-68
2023/02/03 07:47:24;;;;;;;3.63;2.77;;;5.00;99.90;;;;;;4973189;28;20180;-68
2023/02/03 07:49:50;;;;;;;7.07;3.27;;;5.00;99.90;;;;;;4972483;28;20204;-68
2023/02/03 07:52:15;;;;;;;3.83;2.93;;;5.00;99.90;;;;;;4973165;28;20180;-68
2023/02/03 07:54:41;;;;;;;7.20;3.43;;;5.00;99.90;;;;;;4973191;28;20176;-68
2023/02/03 07:57:06;;;;;;;4.40;3.17;;;5.10;99.90;;;;;;4973105;28;20222;-68
2023/02/03 07:59:32;;;;;;;3.50;2.53;;;5.10;99.90;;;;;;4959297;28;20211;-67
2023/02/03 08:01:57;;;;;;;4.07;3.30;;;5.00;99.90;;;;;;4946618;28;20296;-69
2023/02/03 08:04:23;;;;;;;6.63;3.00;;;5.00;99.90;;;;;;4970012;28;20216;-68
2023/02/03 08:06:48;;;;;;;4.10;3.00;;;5.10;99.90;;;;;;4969131;28;20181;-67
2023/02/03 08:09:14;;;;;;;5.83;3.40;;;5.10;99.90;;;;;;4961428;28;20208;-68
2023/02/03 08:11:40;;;;;;;4.40;3.23;;;5.10;99.90;;;;;;4962795;28;20666;-68
2023/02/03 08:14:05;;;;;;;4.23;2.50;;;5.10;99.90;;;;;;4960379;28;20204;-68
2023/02/03 08:16:31;;;;;;;5.50;3.70;;;5.20;99.90;;;;;;4964004;28;20212;-68
2023/02/03 08:18:57;;;;;;;3.17;2.87;;;5.10;99.90;;;;;;4969545;28;20212;-69
2023/02/03 08:21:22;;;;;;;5.63;2.93;;;5.20;99.90;;;;;;4969756;28;20270;-67
2023/02/03 08:23:48;;;;;;;5.33;3.07;;;5.20;99.90;;;;;;4968611;28;20444;-67
2023/02/03 08:26:13;;;;;;;3.23;2.90;;;5.30;99.90;;;;;;4969137;28;20335;-69
2023/02/03 08:28:39;;;;;;;6.80;3.57;;;5.30;99.90;;;;;;4965726;28;20197;-69
2023/02/03 08:31:10;;;;;;;5.00;3.20;;;5.30;99.90;;;;;;4964956;28;20196;-68
2023/02/03 08:33:35;;;;;;;3.40;3.10;;;5.30;99.90;;;;;;4970964;28;20238;-68
2023/02/03 08:36:01;;;;;;;3.80;3.30;;;5.30;99.90;;;;;;4968533;28;20482;-67
2023/02/03 08:38:27;;;;;;;6.87;4.40;;;5.40;99.90;;;;;;4969957;28;20569;-67
2023/02/03 08:40:53;;;;;;;3.00;2.70;;;5.40;99.90;;;;;;4970469;28;20463;-68
2023/02/03 08:43:18;;;;;;;3.83;3.53;;;5.40;99.90;;;;;;4966956;28;20192;-68
2023/02/03 08:45:44;;;;;;;3.50;3.20;;;5.40;99.90;;;;;;4966627;28;20192;-68
2023/02/03 08:48:09;;;;;;;11.33;6.70;;;5.40;99.90;;;;;;4968484;28;20215;-69
2023/02/03 08:50:35;;;;;;;7.30;3.90;;;5.40;99.90;;;;;;4966369;28;20217;-69
2023/02/03 08:53:00;;;;;;;39.40;22.43;;;5.40;99.90;;;;;;4966678;28;20611;-69
2023/02/03 08:55:26;;;;;;;9.10;4.90;;;5.50;99.90;;;;;;4967656;28;20207;-67
2023/02/03 08:57:51;;;;;;;6.67;2.60;;;5.60;99.90;;;;;;4971447;28;20670;-68
2023/02/03 09:00:17;;;;;;;6.03;2.80;;;5.60;99.90;;;;;;4970086;28;20231;-68
2023/02/03 09:02:43;;;;;;;3.47;3.17;;;5.60;99.90;;;;;;4973904;28;20176;-68
2023/02/03 09:05:09;;;;;;;5.10;3.10;;;5.60;99.90;;;;;;4972357;28;20501;-68
2023/02/03 09:07:34;;;;;;;7.73;3.40;;;5.50;99.90;;;;;;4968778;28;20564;-68
2023/02/03 09:10:00;;;;;;;6.83;4.80;;;5.60;99.90;;;;;;4968448;28;20227;-68
2023/02/03 09:12:25;;;;;;;3.93;3.53;;;5.60;99.90;;;;;;4972767;28;20215;-68
2023/02/03 09:14:51;;;;;;;5.03;4.43;;;5.70;99.90;;;;;;4970770;28;20204;-68
2023/02/03 09:17:16;;;;;;;3.20;2.77;;;5.70;99.90;;;;;;4974387;28;20176;-68
2023/02/03 09:19:42;;;;;;;5.47;3.07;;;5.70;99.90;;;;;;4975080;28;20208;-67
2023/02/03 09:22:07;;;;;;;3.37;2.57;;;5.80;99.90;;;;;;4972421;28;20615;-68
2023/02/03 09:24:33;;;;;;;5.13;2.90;;;6.20;99.90;;;;;;4973107;28;20223;-68
2023/02/03 09:27:00;;;;;;;7.33;2.70;;;6.30;99.90;;;;;;4972776;28;20191;-68
2023/02/03 09:29:25;;;;;;;5.20;2.17;;;6.40;99.90;;;;;;4972068;28;20204;-68
2023/02/03 09:31:51;;;;;;;2.60;2.30;;;6.50;99.90;;;;;;4968270;28;20469;-68
2023/02/03 09:34:18;;;;;;;3.00;2.70;;;6.70;99.90;;;;;;4971619;28;20231;-69
2023/02/03 09:36:44;;;;;;;1.87;1.77;;;7.30;99.90;;;;;;4965540;28;20188;-68
2023/02/03 09:39:09;;;;;;;4.53;2.97;;;7.20;99.90;;;;;;4971514;28;20470;-68
2023/02/03 09:42:16;;;;;;;2.53;2.33;;;6.90;99.90;;;;;;4972940;28;20208;-68
2023/02/03 09:45:05;;;;;;;3.43;2.47;;;6.70;99.90;;;;;;4973637;28;20180;-68
2023/02/03 09:47:37;;;;;;;2.20;2.00;;;6.60;99.90;;;;;;4969974;28;20465;-68
2023/02/03 09:50:15;;;;;;;3.03;2.37;;;6.60;99.90;;;;;;4968432;28;20522;-68
2023/02/03 09:52:43;;;;;;;2.13;1.93;;;6.70;99.90;;;;;;4965493;28;20435;-68
2023/02/03 09:55:34;;;;;;;2.60;2.40;;;6.80;99.90;;;;;;4972145;28;20443;-68
2023/02/03 09:58:11;;;;;;;3.33;2.47;;;6.70;99.90;;;;;;4965468;28;20461;-68
2023/02/03 10:00:43;;;;;;;4.23;2.57;;;6.80;99.90;;;;;;4970340;28;20467;-68
2023/02/03 10:03:28;;;;;;;1.57;1.47;;;7.10;99.90;;;;;;4970076;28;20930;-69
2023/02/03 10:06:10;;;;;;;3.57;2.20;;;7.00;99.90;;;;;;4972583;28;20450;-68
2023/02/03 10:09:00;;;;;;;6.77;4.00;;;7.00;99.90;;;;;;4970748;28;20557;-68
2023/02/03 10:11:49;;;;;;;2.00;1.77;;;7.10;99.90;;;;;;4970038;28;20444;-68
2023/02/03 10:14:45;;;;;;;2.30;2.10;;;7.40;99.90;;;;;;4968289;28;20451;-68
2023/02/03 10:17:36;;;;;;;2.13;1.87;;;7.80;99.90;;;;;;4968832;28;20554;-68
2023/02/03 10:20:12;;;;;;;4.83;1.97;;;7.90;99.90;;;;;;4964765;28;20448;-68
2023/02/03 10:22:43;;;;;;;2.20;2.00;;;7.80;99.90;;;;;;4969693;28;20435;-68
2023/02/03 10:25:23;;;;;;;1.87;1.77;;;7.50;99.90;;;;;;4973171;28;20945;-68
2023/02/03 10:27:52;;;;;;;2.10;1.47;;;7.30;99.90;;;;;;4970443;28;20587;-68
2023/02/03 10:30:26;;;;;;;2.10;1.70;;;7.20;99.90;;;;;;4975944;28;20816;-68
2023/02/03 10:33:08;;;;;;;1.63;1.50;;;7.10;99.90;;;;;;4970826;28;20479;-68
2023/02/03 10:35:50;;;;;;;2.70;1.60;;;7.00;99.90;;;;;;4976990;28;21047;-68
2023/02/03 10:38:37;;;;;;;2.93;2.63;;;6.90;99.90;;;;;;4972941;28;20832;-69
2023/02/03 10:41:03;;;;;;;3.17;2.20;;;6.90;99.90;;;;;;4978849;28;20479;-69
2023/02/03 10:43:46;;;;;;;2.20;2.00;;;6.90;99.90;;;;;;4973725;28;20446;-69
2023/02/03 10:46:13;;;;;;;3.00;2.37;;;7.00;99.90;;;;;;4967215;28;20438;-69
2023/02/03 10:48:39;;;;;;;2.97;2.10;;;7.00;99.90;;;;;;4971482;28;20581;-69
2023/02/03 10:51:27;;;;;;;1.50;1.40;;;7.00;99.90;;;;;;4974632;28;20447;-69
2023/02/03 10:53:53;;;;;;;5.37;2.57;;;7.00;99.90;;;;;;4971407;28;20246;-68
2023/02/03 10:56:39;;;;;;;4.97;2.77;;;7.30;99.90;;;;;;4972744;28;20459;-69
2023/02/03 10:59:06;;;;;;;1.90;1.50;;;7.70;99.90;;;;;;4967283;28;20215;-68
2023/02/03 11:01:43;;;;;;;3.23;2.20;;;8.50;99.90;;;;;;4971243;28;20467;-68
2023/02/03 11:04:29;;;;;;;3.50;1.43;;;9.80;99.90;;;;;;4971695;28;20451;-68
2023/02/03 11:07:00;;;;;;;2.20;1.10;;;10.00;99.90;;;;;;4971807;28;20515;-68
2023/02/03 11:09:41;;;;;;;3.17;1.70;;;10.00;99.90;;;;;;4969593;28;20534;-68
2023/02/03 11:12:14;;;;;;;4.73;1.83;;;9.60;99.90;;;;;;4969801;28;20491;-68
2023/02/03 11:14:51;;;;;;;3.80;1.50;;;9.20;99.90;;;;;;4968035;28;21561;-68
2023/02/03 11:17:25;;;;;;;2.97;0.90;;;8.70;99.90;;;;;;4970402;28;20450;-68
2023/02/03 11:19:53;;;;;;;2.70;1.20;;;8.30;99.90;;;;;;4971063;28;20463;-68
2023/02/03 11:22:36;;;;;;;1.87;1.60;;;8.00;99.90;;;;;;4972017;28;20478;-67
2023/02/03 11:25:04;;;;;;;2.87;2.43;;;8.10;99.90;;;;;;4968851;28;20448;-67
2023/02/03 11:27:31;;;;;;;1.77;1.63;;;8.00;99.90;;;;;;4969172;28;20439;-67
2023/02/03 11:30:22;;;;;;;5.80;2.00;;;7.90;99.90;;;;;;4970305;28;20442;-68
2023/02/03 11:32:49;;;;;;;3.53;1.40;;;7.90;99.90;;;;;;4972439;28;20455;-67
2023/02/03 11:35:25;;;;;;;3.23;2.60;;;7.90;99.90;;;;;;4968614;28;20446;-67
2023/02/03 11:37:54;;;;;;;4.93;2.23;;;7.80;99.90;;;;;;4961069;28;20601;-68
2023/02/03 11:40:19;;;;;;;2.17;1.50;;;7.80;99.90;;;;;;4973978;28;20906;-68
2023/02/03 11:42:50;;;;;;;3.13;1.20;;;7.90;99.90;;;;;;4970569;28;20558;-67
2023/02/03 11:45:37;;;;;;;2.27;1.40;;;7.90;99.90;;;;;;4969279;28;20302;-66
2023/02/03 11:48:38;;;;;;;3.73;2.33;;;7.80;99.90;;;;;;4963199;28;20467;-66
2023/02/03 11:51:11;;;;;;;1.87;1.50;;;7.70;99.90;;;;;;4968701;28;20451;-66
2023/02/03 11:53:50;;;;;;;2.43;1.20;;;7.80;99.90;;;;;;4969956;28;20446;-65
2023/02/03 11:56:49;;;;;;;1.60;1.50;;;7.80;99.90;;;;;;4968129;28;20491;-65
2023/02/03 11:59:24;;;;;;;3.30;3.00;;;7.90;99.90;;;;;;4963454;28;20459;-67
2023/02/03 12:02:16;;;;;;;1.90;1.80;;;8.00;99.90;;;;;;4964124;28;20462;-66
2023/02/03 12:05:02;;;;;;;2.03;1.83;;;8.00;99.90;;;;;;4969963;28;20432;-67
2023/02/03 12:07:50;;;;;;;2.40;1.67;;;8.10;99.90;;;;;;4966408;28;20442;-66
2023/02/03 12:10:34;;;;;;;1.20;1.10;;;8.10;99.90;;;;;;4970147;28;20427;-66
2023/02/03 12:13:23;;;;;;;1.40;1.30;;;8.10;99.90;;;;;;4967608;28;20428;-66
2023/02/03 12:16:08;;;;;;;0.90;0.70;;;8.00;99.90;;;;;;4968938;28;20436;-67
2023/02/03 12:19:01;;;;;;;1.70;1.50;;;8.00;99.90;;;;;;4968331;28;20454;-67
2023/02/03 12:21:42;;;;;;;1.37;1.27;;;8.00;99.90;;;;;;4969152;28;20455;-67
2023/02/03 12:24:44;;;;;;;0.87;0.87;;;8.00;99.90;;;;;;4970586;28;20427;-67
2023/02/03 12:27:40;;;;;;;1.20;1.00;;;8.10;99.90;;;;;;4968895;28;20478;-67
2023/02/03 12:30:13;;;;;;;0.90;0.80;;;8.20;99.90;;;;;;4967643;28;20447;-66
2023/02/03 12:32:50;;;;;;;1.03;1.00;;;8.30;99.90;;;;;;4969904;28;20442;-67
2023/02/03 12:35:20;;;;;;;1.53;1.00;;;8.30;99.90;;;;;;4973721;28;20490;-67
2023/02/03 12:37:52;;;;;;;1.10;0.73;;;8.20;99.90;;;;;;4968558;28;20435;-67
2023/02/03 12:40:40;;;;;;;1.77;0.80;;;8.20;99.90;;;;;;4972557;28;20431;-67
2023/02/03 12:43:36;;;;;;;0.70;0.70;;;8.10;99.90;;;;;;4969083;28;20458;-67
2023/02/03 12:46:40;;;;;;;0.90;0.70;;;8.10;99.90;;;;;;4973315;28;20491;-67
2023/02/03 12:49:25;;;;;;;0.87;0.87;;;8.10;99.90;;;;;;4969044;28;20536;-67
2023/02/03 12:52:15;;;;;;;0.80;0.80;;;8.10;99.90;;;;;;4975161;28;20461;-67
2023/02/03 12:55:05;;;;;;;4.40;3.60;;;8.00;99.90;;;;;;4971622;28;20474;-67
2023/02/03 12:57:58;;;;;;;3.70;1.67;;;8.00;99.90;;;;;;4978158;28;20442;-68
2023/02/03 13:00:46;;;;;;;1.60;1.20;;;8.00;99.90;;;;;;4970137;28;20526;-68
2023/02/03 13:03:44;;;;;;;1.00;0.87;;;8.00;99.90;;;;;;4975193;28;20436;-68
2023/02/03 13:06:29;;;;;;;0.70;0.70;;;8.00;99.90;;;;;;4971426;28;20436;-68
2023/02/03 13:09:21;;;;;;;1.70;1.60;;;8.00;99.90;;;;;;4971655;28;20474;-68
2023/02/03 13:11:53;;;;;;;2.00;1.37;;;8.00;99.90;;;;;;4966729;28;20531;-68
2023/02/03 13:14:30;;;;;;;0.80;0.70;;;8.00;99.90;;;;;;4972384;28;20439;-68
2023/02/03 13:17:10;;;;;;;0.77;0.77;;;8.00;99.90;;;;;;4971157;28;20439;-67
2023/02/03 13:19:43;;;;;;;1.10;0.90;;;8.00;99.90;;;;;;4972541;28;20474;-68
2023/02/03 13:22:11;;;;;;;1.57;1.00;;;8.10;99.90;;;;;;4971768;28;20507;-68